Time;durP1;ratioP1;P1;durP2;ratioP2;P2;SDS_P1;SDS_P2;PMS_P1;PMS_P2;Temp;Humidity;BMP_temperature;BMP_pressure;BME280_temperature;BME280_humidity;BME280_pressure;Samples;Min_cycle;Max_cycle;Signal;HPM_P1;HPM_P2
2020/12/20 00:01:01;;;;;;;8.13;5.13;;;8.70;89.40;;;;;;5022628;28;20421;-74
2020/12/20 00:03:27;;;;;;;10.63;5.47;;;8.70;89.40;;;;;;5040317;28;20029;-75
2020/12/20 00:05:53;;;;;;;12.05;5.80;;;8.60;89.30;;;;;;5040441;28;20025;-75
2020/12/20 00:08:18;;;;;;;9.05;5.88;;;8.60;89.30;;;;;;5022327;28;20424;-74
2020/12/20 00:10:44;;;;;;;9.18;5.65;;;8.70;89.40;;;;;;5020345;28;20044;-75
2020/12/20 00:13:10;;;;;;;11.02;5.95;;;8.70;89.30;;;;;;5037899;28;20039;-75
2020/12/20 00:15:36;;;;;;;7.97;5.53;;;8.70;89.10;;;;;;5038467;28;20032;-74
2020/12/20 00:18:01;;;;;;;8.05;5.65;;;8.70;89.10;;;;;;5039713;28;20030;-74
2020/12/20 00:20:28;;;;;;;9.68;6.00;;;8.70;89.10;;;;;;5040019;28;20036;-75
2020/12/20 00:22:55;;;;;;;9.90;5.72;;;8.70;89.10;;;;;;5038617;28;20021;-74
2020/12/20 00:25:20;;;;;;;8.38;5.65;;;8.70;89.20;;;;;;5021034;28;20026;-74
2020/12/20 00:27:46;;;;;;;7.47;5.40;;;8.70;89.30;;;;;;5039124;28;20030;-75
2020/12/20 00:30:12;;;;;;;8.25;5.45;;;8.60;89.10;;;;;;5038478;28;20086;-75
2020/12/20 00:32:37;;;;;;;8.57;5.03;;;8.70;89.20;;;;;;5037031;28;20041;-74
2020/12/20 00:35:05;;;;;;;8.10;5.75;;;8.60;89.20;;;;;;5038488;28;20033;-75
2020/12/20 00:37:31;;;;;;;9.65;5.55;;;8.60;89.40;;;;;;5038401;28;20030;-75
2020/12/20 00:39:57;;;;;;;8.65;5.05;;;8.50;89.30;;;;;;5040676;28;20032;-75
2020/12/20 00:42:23;;;;;;;7.70;5.50;;;8.60;89.20;;;;;;5038891;28;20474;-74
2020/12/20 00:44:48;;;;;;;11.07;6.90;;;8.50;89.20;;;;;;5037389;28;20026;-75
2020/12/20 00:47:14;;;;;;;8.73;6.10;;;8.50;89.30;;;;;;5040198;28;20161;-75
2020/12/20 00:49:40;;;;;;;8.93;5.72;;;8.50;89.30;;;;;;5039008;28;20033;-75
2020/12/20 00:52:07;;;;;;;10.15;6.18;;;8.40;89.50;;;;;;5037545;28;20068;-75
2020/12/20 00:54:33;;;;;;;9.98;5.97;;;8.40;89.60;;;;;;5024472;28;20029;-75
2020/12/20 00:57:00;;;;;;;9.60;5.65;;;8.40;89.50;;;;;;5038131;28;20030;-74
2020/12/20 00:59:25;;;;;;;10.90;6.13;;;8.40;89.60;;;;;;5038341;28;20034;-75
2020/12/20 01:01:51;;;;;;;8.77;5.70;;;8.30;89.50;;;;;;5020625;28;20504;-75
2020/12/20 01:04:17;;;;;;;7.47;5.10;;;8.30;89.50;;;;;;5040415;28;20025;-74
2020/12/20 01:06:43;;;;;;;10.18;5.90;;;8.30;89.60;;;;;;5020336;28;20566;-74
2020/12/20 01:09:09;;;;;;;9.43;5.60;;;8.20;89.80;;;;;;5022888;28;20036;-74
2020/12/20 01:11:35;;;;;;;8.88;5.70;;;8.20;89.90;;;;;;5022858;28;20025;-74
2020/12/20 01:14:03;;;;;;;9.25;5.65;;;8.20;90.00;;;;;;5039112;28;20056;-75
2020/12/20 01:16:30;;;;;;;7.13;5.22;;;8.20;90.00;;;;;;5029012;28;20040;-75
2020/12/20 01:18:56;;;;;;;8.20;5.05;;;8.20;90.00;;;;;;5039471;28;20037;-74
2020/12/20 01:21:22;;;;;;;10.57;5.72;;;8.10;90.00;;;;;;5038032;28;20034;-75
2020/12/20 01:23:48;;;;;;;9.75;5.95;;;8.10;90.10;;;;;;5037880;28;20025;-74
2020/12/20 01:26:15;;;;;;;8.88;5.53;;;8.10;90.10;;;;;;5037717;28;20025;-74
2020/12/20 01:28:41;;;;;;;8.52;5.65;;;8.10;90.10;;;;;;5038192;28;20114;-75
2020/12/20 01:31:09;;;;;;;7.07;5.30;;;8.10;90.00;;;;;;5038262;28;20058;-74
2020/12/20 01:33:35;;;;;;;9.95;6.00;;;8.10;90.10;;;;;;5046263;28;20029;-75
2020/12/20 01:36:05;;;;;;;8.95;5.35;;;8.10;90.10;;;;;;5021017;28;20032;-75
2020/12/20 01:38:31;;;;;;;8.93;5.93;;;8.10;90.20;;;;;;5022999;28;20456;-74
2020/12/20 01:40:57;;;;;;;8.82;5.82;;;8.10;90.10;;;;;;5039104;28;20040;-75
2020/12/20 01:43:23;;;;;;;9.00;5.85;;;8.00;90.10;;;;;;5040639;28;20024;-74
2020/12/20 01:45:50;;;;;;;8.80;5.50;;;8.00;90.10;;;;;;5041384;28;20495;-75
2020/12/20 01:48:16;;;;;;;8.88;5.22;;;8.00;90.20;;;;;;5045853;28;20072;-74
2020/12/20 01:50:43;;;;;;;7.80;5.53;;;8.00;90.20;;;;;;5042021;28;20041;-74
2020/12/20 01:53:11;;;;;;;8.10;5.63;;;8.00;90.30;;;;;;5046473;28;20095;-74
2020/12/20 01:55:43;;;;;;;9.77;5.68;;;8.00;90.10;;;;;;5023812;28;20040;-75
2020/12/20 01:58:09;;;;;;;9.70;6.20;;;8.00;90.20;;;;;;5057582;28;20025;-75
2020/12/20 02:00:35;;;;;;;8.90;5.63;;;7.90;90.20;;;;;;5039134;28;20025;-75
2020/12/20 02:03:01;;;;;;;8.18;5.95;;;7.90;90.20;;;;;;5025797;28;20032;-74
2020/12/20 02:05:27;;;;;;;9.00;5.85;;;7.90;90.10;;;;;;5040412;28;20670;-74
2020/12/20 02:07:52;;;;;;;10.30;6.07;;;7.90;90.20;;;;;;5041927;28;20116;-75
2020/12/20 02:10:18;;;;;;;9.27;6.03;;;7.90;90.20;;;;;;5042191;28;20384;-75
2020/12/20 02:12:44;;;;;;;8.15;5.60;;;7.90;90.20;;;;;;5047328;28;20112;-74
2020/12/20 02:15:13;;;;;;;10.40;6.18;;;7.90;90.40;;;;;;5041498;28;20044;-74
2020/12/20 02:17:39;;;;;;;10.27;5.82;;;7.90;90.30;;;;;;5039539;28;20059;-75
2020/12/20 02:20:06;;;;;;;9.15;6.00;;;7.90;90.10;;;;;;5031984;28;20057;-75
2020/12/20 02:22:33;;;;;;;12.57;6.78;;;7.90;90.20;;;;;;5024248;28;20021;-75
2020/12/20 02:24:59;;;;;;;8.80;5.47;;;8.00;90.10;;;;;;5039471;28;20113;-74
2020/12/20 02:27:25;;;;;;;9.18;5.20;;;8.00;90.10;;;;;;5041174;28;20508;-75
2020/12/20 02:29:51;;;;;;;7.53;4.70;;;8.00;90.10;;;;;;5042349;28;20067;-74
2020/12/20 02:32:17;;;;;;;550.72;277.23;;;8.00;90.10;;;;;;5041791;28;20033;-74
2020/12/20 02:34:43;;;;;;;44.42;24.15;;;7.90;90.20;;;;;;5023332;28;20037;-74
2020/12/20 02:37:09;;;;;;;42.70;31.20;;;8.00;90.10;;;;;;5022175;28;20025;-74
2020/12/20 02:39:34;;;;;;;10.70;6.22;;;7.90;90.10;;;;;;5039190;28;20024;-76
2020/12/20 02:42:00;;;;;;;8.35;5.50;;;8.00;90.10;;;;;;5039632;28;20432;-75
2020/12/20 02:44:26;;;;;;;9.45;5.30;;;7.90;90.10;;;;;;5023897;28;20025;-76
2020/12/20 02:46:51;;;;;;;9.25;5.60;;;7.90;90.10;;;;;;5039402;28;20029;-76
2020/12/20 02:49:18;;;;;;;8.35;5.07;;;7.90;90.10;;;;;;5042131;28;20048;-75
2020/12/20 02:51:44;;;;;;;7.85;5.30;;;7.90;90.10;;;;;;5025256;28;20025;-75
2020/12/20 02:54:10;;;;;;;9.45;5.28;;;7.90;90.10;;;;;;5030981;28;20035;-75
2020/12/20 02:56:44;;;;;;;7.03;5.00;;;7.90;90.10;;;;;;5041057;28;20041;-75
2020/12/20 02:59:10;;;;;;;9.57;4.90;;;7.80;90.10;;;;;;5039650;28;20021;-76
2020/12/20 03:01:35;;;;;;;9.73;5.30;;;7.80;90.10;;;;;;5040103;28;20060;-75
2020/12/20 03:04:01;;;;;;;8.85;5.28;;;7.80;90.10;;;;;;5039226;28;20393;-76
2020/12/20 03:06:27;;;;;;;8.93;4.95;;;7.80;90.10;;;;;;5039035;28;20036;-76
2020/12/20 03:08:53;;;;;;;9.30;5.30;;;7.80;90.10;;;;;;5040971;28;20029;-74
2020/12/20 03:11:18;;;;;;;8.35;5.00;;;7.80;90.10;;;;;;5038775;28;20029;-76
2020/12/20 03:13:44;;;;;;;9.50;5.30;;;7.80;90.20;;;;;;5024285;28;20036;-75
2020/12/20 03:16:10;;;;;;;7.85;5.10;;;7.70;90.10;;;;;;5047075;28;20078;-76
2020/12/20 03:18:35;;;;;;;8.38;4.88;;;7.70;90.10;;;;;;5042278;28;20136;-76
2020/12/20 03:21:01;;;;;;;7.75;5.00;;;7.70;90.20;;;;;;5049363;28;20151;-75
2020/12/20 03:23:27;;;;;;;8.85;4.97;;;7.70;90.20;;;;;;5042218;28;20029;-76
2020/12/20 03:25:52;;;;;;;7.82;5.05;;;7.80;90.20;;;;;;5024935;28;20035;-76
2020/12/20 03:28:18;;;;;;;8.43;5.18;;;7.70;90.20;;;;;;5038926;28;20044;-75
2020/12/20 03:30:43;;;;;;;8.05;4.70;;;7.80;90.20;;;;;;5042578;28;20033;-76
2020/12/20 03:33:09;;;;;;;7.22;5.13;;;7.80;90.10;;;;;;5041811;28;20033;-76
2020/12/20 03:35:35;;;;;;;10.13;5.00;;;7.80;90.20;;;;;;5044478;28;20022;-76
2020/12/20 03:38:01;;;;;;;8.70;5.35;;;7.80;90.10;;;;;;5043366;28;20071;-76
2020/12/20 03:40:26;;;;;;;9.80;5.25;;;7.80;90.00;;;;;;5024552;28;20028;-75
2020/12/20 03:42:52;;;;;;;6.90;4.90;;;7.80;90.00;;;;;;5039339;28;20095;-76
2020/12/20 03:45:19;;;;;;;6.63;5.00;;;7.80;90.00;;;;;;5039214;28;20476;-76
2020/12/20 03:47:45;;;;;;;8.02;5.00;;;7.80;90.00;;;;;;5041536;28;20029;-76
2020/12/20 03:50:11;;;;;;;8.27;5.47;;;7.80;90.00;;;;;;5023617;28;20530;-76
2020/12/20 03:52:37;;;;;;;9.48;5.50;;;7.80;89.90;;;;;;5038241;28;20029;-75
2020/12/20 03:55:03;;;;;;;8.18;5.82;;;7.80;90.00;;;;;;5039708;28;20029;-76
2020/12/20 03:57:29;;;;;;;9.57;5.10;;;7.80;89.80;;;;;;5044798;28;20062;-76
2020/12/20 03:59:57;;;;;;;8.90;5.07;;;7.80;89.80;;;;;;5054817;28;20107;-75
2020/12/20 04:02:23;;;;;;;6.85;5.28;;;7.80;89.80;;;;;;5024071;28;20023;-76
2020/12/20 04:04:48;;;;;;;6.90;4.75;;;7.80;89.90;;;;;;5038106;28;20488;-75
2020/12/20 04:07:14;;;;;;;6.63;5.05;;;7.80;90.00;;;;;;5045912;28;20028;-76
2020/12/20 04:09:40;;;;;;;8.35;6.45;;;7.80;89.90;;;;;;5038001;28;20072;-76
2020/12/20 04:12:06;;;;;;;7.40;5.15;;;7.80;90.00;;;;;;5038982;28;20162;-76
2020/12/20 04:14:31;;;;;;;7.38;5.05;;;7.80;89.70;;;;;;5038922;28;20026;-75
2020/12/20 04:16:57;;;;;;;8.20;5.00;;;7.80;89.90;;;;;;5039304;28;20029;-75
2020/12/20 04:19:23;;;;;;;9.48;5.93;;;7.80;89.80;;;;;;5037984;28;20551;-75
2020/12/20 04:21:49;;;;;;;8.27;5.20;;;7.90;89.90;;;;;;5038925;28;20032;-76
2020/12/20 04:24:15;;;;;;;7.15;5.10;;;7.90;89.80;;;;;;5022929;28;20354;-77
2020/12/20 04:26:42;;;;;;;6.93;4.60;;;7.90;89.80;;;;;;5039162;28;20042;-76
2020/12/20 04:29:08;;;;;;;9.15;5.85;;;7.80;89.80;;;;;;5037154;28;20028;-76
2020/12/20 04:31:34;;;;;;;9.10;5.97;;;7.80;89.90;;;;;;5037851;28;20057;-75
2020/12/20 04:33:59;;;;;;;7.28;5.35;;;7.80;89.80;;;;;;5005474;28;20492;-76
2020/12/20 04:36:25;;;;;;;8.43;5.72;;;7.80;89.70;;;;;;5023123;28;20103;-75
2020/12/20 04:38:51;;;;;;;8.02;5.35;;;7.90;89.70;;;;;;5036959;28;20076;-76
2020/12/20 04:41:21;;;;;;;7.80;5.28;;;7.90;89.80;;;;;;5037718;28;20025;-76
2020/12/20 04:43:48;;;;;;;7.82;5.18;;;7.90;89.40;;;;;;5040263;28;20167;-75
2020/12/20 04:46:17;;;;;;;7.88;4.85;;;7.90;89.70;;;;;;5038959;28;20025;-75
2020/12/20 04:48:43;;;;;;;9.05;5.47;;;7.90;89.80;;;;;;5038336;28;20397;-76
2020/12/20 04:51:10;;;;;;;10.60;5.43;;;7.90;89.70;;;;;;5039939;28;20033;-76
2020/12/20 04:53:35;;;;;;;7.65;5.43;;;7.90;89.80;;;;;;5037361;28;20389;-75
2020/12/20 04:56:07;;;;;;;7.70;5.45;;;7.80;89.60;;;;;;5038434;28;20017;-76
2020/12/20 04:58:34;;;;;;;9.65;5.82;;;7.80;89.70;;;;;;5031256;28;20034;-76
2020/12/20 05:01:01;;;;;;;7.47;5.00;;;7.80;89.70;;;;;;5025631;28;20452;-76
2020/12/20 05:03:27;;;;;;;9.68;5.65;;;7.80;89.70;;;;;;5038752;28;20033;-75
2020/12/20 05:05:53;;;;;;;7.88;4.95;;;7.80;89.80;;;;;;5022435;28;20028;-76
2020/12/20 05:08:21;;;;;;;9.05;5.32;;;7.90;89.70;;;;;;5045294;28;20155;-75
2020/12/20 05:10:48;;;;;;;7.65;5.35;;;7.90;89.60;;;;;;5039408;28;20508;-76
2020/12/20 05:13:13;;;;;;;7.80;5.00;;;7.80;89.60;;;;;;5040240;28;20485;-75
2020/12/20 05:15:39;;;;;;;11.30;5.47;;;7.90;89.50;;;;;;5042799;28;20033;-76
2020/12/20 05:18:10;;;;;;;8.68;5.55;;;7.90;89.60;;;;;;5045894;28;20029;-76
2020/12/20 05:20:41;;;;;;;10.40;5.28;;;7.90;89.60;;;;;;5044199;28;20575;-76
2020/12/20 05:23:08;;;;;;;8.82;5.75;;;7.90;89.50;;;;;;5043708;28;20045;-76
2020/12/20 05:25:36;;;;;;;10.27;5.40;;;7.90;89.50;;;;;;5043331;28;20022;-75
2020/12/20 05:28:05;;;;;;;7.60;4.82;;;7.90;89.40;;;;;;5043378;28;20094;-75
2020/12/20 05:30:31;;;;;;;8.43;5.35;;;7.90;89.60;;;;;;5024178;28;20133;-76
2020/12/20 05:32:56;;;;;;;10.25;5.70;;;7.90;89.40;;;;;;5041727;28;20464;-75
2020/12/20 05:35:22;;;;;;;8.43;5.50;;;7.90;89.50;;;;;;5041291;28;20041;-74
2020/12/20 05:37:47;;;;;;;7.43;5.07;;;7.80;89.60;;;;;;5041302;28;20145;-76
2020/12/20 05:40:47;;;;;;;9.43;4.82;;;7.90;89.60;;;;;;5026105;28;20021;-76
2020/12/20 05:43:14;;;;;;;8.38;5.47;;;7.90;89.40;;;;;;5015842;28;20121;-76
2020/12/20 05:45:40;;;;;;;8.43;5.30;;;7.90;89.40;;;;;;5023863;28;20033;-76
2020/12/20 05:48:16;;;;;;;7.30;4.82;;;7.90;89.30;;;;;;5043954;28;20078;-76
2020/12/20 05:51:08;;;;;;;7.07;4.72;;;7.90;89.30;;;;;;5028471;28;20034;-76
2020/12/20 05:53:35;;;;;;;8.23;5.22;;;7.90;89.00;;;;;;5036187;28;20040;-75
2020/12/20 05:56:03;;;;;;;8.07;4.63;;;7.90;88.90;;;;;;5041177;28;20500;-75
2020/12/20 05:58:34;;;;;;;8.98;5.10;;;7.90;89.10;;;;;;5048356;28;20099;-76
2020/12/20 06:01:00;;;;;;;7.70;5.40;;;7.90;89.10;;;;;;5040988;28;20477;-75
2020/12/20 06:03:26;;;;;;;7.07;5.05;;;7.90;89.10;;;;;;5041254;28;20033;-75
2020/12/20 06:05:52;;;;;;;8.43;5.10;;;7.90;89.10;;;;;;5022305;28;20029;-75
2020/12/20 06:08:20;;;;;;;8.30;4.78;;;7.80;89.40;;;;;;5041433;28;20083;-75
2020/12/20 06:10:51;;;;;;;8.93;5.85;;;7.90;89.40;;;;;;5040993;28;20485;-76
2020/12/20 06:13:19;;;;;;;7.95;4.72;;;7.90;89.20;;;;;;5042813;28;20034;-75
2020/12/20 06:15:50;;;;;;;8.25;5.40;;;7.90;89.40;;;;;;5040783;28;20038;-75
2020/12/20 06:18:22;;;;;;;;;;;7.90;89.30;;;;;;5040738;28;20052;-76
2020/12/20 06:20:56;;;;;;;7.22;5.35;;;7.90;89.40;;;;;;5059004;28;20352;-76
2020/12/20 06:23:24;;;;;;;8.88;5.20;;;7.90;89.40;;;;;;5041932;28;20037;-76
2020/12/20 06:25:51;;;;;;;8.25;5.38;;;7.90;89.60;;;;;;5038883;28;20032;-76
2020/12/20 06:28:21;;;;;;;9.38;5.32;;;7.90;89.40;;;;;;5042606;28;20065;-75
2020/12/20 06:30:47;;;;;;;7.93;5.10;;;7.90;89.20;;;;;;5041631;28;20021;-76
2020/12/20 06:33:23;;;;;;;8.40;5.50;;;7.90;89.40;;;;;;5022933;28;20396;-75
2020/12/20 06:35:50;;;;;;;6.88;5.13;;;7.90;89.30;;;;;;5041509;28;20064;-75
2020/12/20 06:38:21;;;;;;;7.25;4.82;;;7.90;89.70;;;;;;5041948;28;20500;-75
2020/12/20 06:40:47;;;;;;;7.45;5.03;;;7.80;89.30;;;;;;5024886;28;20754;-76
2020/12/20 06:43:14;;;;;;;7.85;4.80;;;7.80;89.40;;;;;;5042519;28;20033;-74
2020/12/20 06:45:45;;;;;;;5.72;4.90;;;7.80;90.00;;;;;;5041447;28;20053;-75
2020/12/20 06:48:12;;;;;;;;;;;7.80;89.50;;;;;;5047997;28;20021;-76
2020/12/20 06:50:46;;;;;;;8.00;4.95;;;7.80;89.50;;;;;;5029993;28;19909;-76
2020/12/20 06:53:15;;;;;;;6.32;4.65;;;7.80;89.50;;;;;;5040854;28;20079;-76
2020/12/20 06:55:41;;;;;;;8.38;5.53;;;7.80;89.30;;;;;;5042918;28;20123;-75
2020/12/20 06:58:09;;;;;;;8.02;5.35;;;7.80;89.30;;;;;;5040171;28;20037;-75
2020/12/20 07:00:56;;;;;;;8.70;5.20;;;7.80;89.50;;;;;;5028713;28;20022;-76
2020/12/20 07:03:25;;;;;;;7.32;4.97;;;7.80;89.40;;;;;;5038484;28;20040;-75
2020/12/20 07:05:52;;;;;;;7.95;5.40;;;7.80;89.50;;;;;;5008952;28;20061;-75
2020/12/20 07:08:31;;;;;;;8.13;5.35;;;7.80;89.50;;;;;;5039055;28;20026;-76
2020/12/20 07:11:02;;;;;;;8.23;5.80;;;7.80;89.60;;;;;;5041858;28;20032;-75
2020/12/20 07:13:43;;;;;;;8.15;5.28;;;7.80;89.70;;;;;;5059155;28;20033;-75
2020/12/20 07:16:12;;;;;;;8.80;5.15;;;7.80;89.40;;;;;;5038044;28;20063;-75
2020/12/20 07:18:38;;;;;;;8.98;5.20;;;7.80;89.40;;;;;;5039850;28;20437;-75
2020/12/20 07:21:04;;;;;;;7.65;5.65;;;7.80;89.20;;;;;;5039282;28;20076;-75
2020/12/20 07:23:29;;;;;;;9.30;5.20;;;7.90;89.20;;;;;;5041346;28;20021;-75
2020/12/20 07:25:56;;;;;;;6.88;4.85;;;7.80;89.20;;;;;;5038481;28;20033;-75
2020/12/20 07:28:22;;;;;;;8.00;5.30;;;7.80;89.40;;;;;;5024526;28;20025;-75
2020/12/20 07:30:48;;;;;;;6.93;4.82;;;7.80;89.80;;;;;;5039365;28;20056;-75
2020/12/20 07:33:16;;;;;;;9.15;5.15;;;7.80;89.30;;;;;;5039294;28;20041;-76
2020/12/20 07:35:45;;;;;;;6.53;4.82;;;7.80;89.20;;;;;;5024734;28;20143;-76
2020/12/20 07:38:10;;;;;;;11.82;5.50;;;7.80;89.20;;;;;;5040946;28;20033;-77
2020/12/20 07:40:36;;;;;;;8.05;5.43;;;7.80;89.30;;;;;;5044955;28;20052;-76
2020/12/20 07:43:02;;;;;;;7.47;5.40;;;7.90;90.10;;;;;;5040914;28;20400;-75
2020/12/20 07:45:27;;;;;;;10.40;5.55;;;7.90;89.00;;;;;;5040453;28;20056;-77
2020/12/20 07:47:53;;;;;;;7.82;4.90;;;8.00;88.90;;;;;;5022048;28;20037;-77
2020/12/20 07:50:23;;;;;;;7.35;5.32;;;7.90;88.60;;;;;;5028291;28;20025;-77
2020/12/20 07:52:49;;;;;;;7.47;5.15;;;7.90;88.60;;;;;;5022346;28;20025;-76
2020/12/20 07:55:15;;;;;;;7.40;5.68;;;7.90;88.60;;;;;;5037892;28;20103;-77
2020/12/20 07:57:45;;;;;;;10.48;5.97;;;7.90;88.60;;;;;;5040161;28;20094;-76
2020/12/20 08:00:11;;;;;;;7.88;5.45;;;7.90;88.60;;;;;;5056561;28;20037;-77
2020/12/20 08:02:38;;;;;;;8.50;5.60;;;7.90;88.70;;;;;;5037783;28;20036;-77
2020/12/20 08:05:09;;;;;;;8.10;5.38;;;7.90;89.00;;;;;;5039834;28;20120;-77
2020/12/20 08:07:35;;;;;;;8.52;5.18;;;7.80;88.60;;;;;;5041197;28;20507;-76
2020/12/20 08:10:01;;;;;;;10.52;5.57;;;7.80;88.60;;;;;;5045409;28;20032;-77
2020/12/20 08:12:27;;;;;;;7.30;5.28;;;7.80;88.70;;;;;;5032085;28;20048;-76
2020/12/20 08:15:08;;;;;;;10.43;5.75;;;7.80;88.80;;;;;;5046818;28;20022;-77
2020/12/20 08:17:37;;;;;;;8.55;5.88;;;7.80;88.70;;;;;;5031944;28;20025;-77
2020/12/20 08:20:06;;;;;;;9.93;5.88;;;7.80;88.70;;;;;;5020810;28;20139;-77
2020/12/20 08:22:34;;;;;;;9.40;6.10;;;7.80;88.90;;;;;;5027676;28;20021;-77
2020/12/20 08:25:08;;;;;;;8.88;6.18;;;7.80;88.70;;;;;;5050280;28;20017;-77
2020/12/20 08:27:36;;;;;;;10.80;6.07;;;7.80;88.70;;;;;;5048934;28;20021;-77
2020/12/20 08:30:05;;;;;;;8.80;5.40;;;7.80;88.60;;;;;;5034002;28;20040;-78
2020/12/20 08:32:40;;;;;;;8.32;5.85;;;7.80;88.80;;;;;;5041559;28;20037;-77
2020/12/20 08:35:22;;;;;;;10.95;6.15;;;7.80;88.70;;;;;;5043291;28;20108;-77
2020/12/20 08:38:06;;;;;;;8.25;5.80;;;7.80;88.60;;;;;;5044352;28;20118;-77
2020/12/20 08:40:32;;;;;;;8.65;6.13;;;7.80;88.70;;;;;;5026997;28;20052;-74
2020/12/20 08:42:59;;;;;;;9.02;5.80;;;7.80;88.80;;;;;;5044098;28;20033;-75
2020/12/20 08:45:26;;;;;;;9.57;6.40;;;7.80;88.80;;;;;;5029170;28;20051;-73
2020/12/20 08:48:00;;;;;;;11.18;6.07;;;7.80;88.80;;;;;;5024285;28;20103;-76
2020/12/20 08:50:27;;;;;;;10.07;7.18;;;7.80;89.20;;;;;;5052883;28;20037;-75
2020/12/20 08:53:07;;;;;;;9.18;5.85;;;7.80;88.80;;;;;;5045363;28;20055;-74
2020/12/20 08:55:33;;;;;;;8.77;5.30;;;7.80;88.90;;;;;;5050584;28;20020;-73
2020/12/20 08:58:08;;;;;;;8.65;5.95;;;7.80;88.80;;;;;;5045919;28;20116;-75
2020/12/20 09:00:35;;;;;;;8.88;6.13;;;7.80;88.90;;;;;;5045150;28;20096;-75
2020/12/20 09:03:02;;;;;;;9.02;5.55;;;7.80;89.00;;;;;;5045748;28;20053;-74
2020/12/20 09:05:30;;;;;;;10.98;6.20;;;7.90;88.60;;;;;;5046187;28;20063;-74
2020/12/20 09:07:57;;;;;;;8.48;5.97;;;7.90;88.70;;;;;;5041861;28;20135;-75
2020/12/20 09:10:30;;;;;;;8.27;5.68;;;7.90;88.80;;;;;;5044085;28;20025;-74
2020/12/20 09:12:58;;;;;;;9.10;6.30;;;7.90;89.00;;;;;;5043280;28;20075;-76
2020/12/20 09:15:30;;;;;;;7.95;5.68;;;7.90;88.80;;;;;;5048736;28;20028;-74
2020/12/20 09:18:15;;;;;;;11.73;6.43;;;7.90;88.60;;;;;;5046511;28;20112;-76
2020/12/20 09:20:42;;;;;;;9.63;5.97;;;7.90;88.70;;;;;;5040508;28;20034;-76
2020/12/20 09:23:25;;;;;;;11.88;6.15;;;7.90;88.70;;;;;;5044187;28;20018;-76
2020/12/20 09:25:59;;;;;;;8.85;5.82;;;8.00;88.60;;;;;;5042396;28;20032;-76
2020/12/20 09:28:26;;;;;;;8.77;5.63;;;7.90;88.70;;;;;;5045703;28;20033;-76
2020/12/20 09:30:53;;;;;;;10.18;6.28;;;7.90;88.80;;;;;;5053873;28;20697;-77
2020/12/20 09:33:34;;;;;;;11.10;6.05;;;8.00;88.60;;;;;;5054516;28;20056;-75
2020/12/20 09:36:05;;;;;;;11.48;6.22;;;8.00;88.80;;;;;;5058699;28;20403;-73
2020/12/20 09:38:41;;;;;;;14.07;5.45;;;8.00;88.80;;;;;;5047722;28;20029;-74
2020/12/20 09:41:20;;;;;;;8.35;6.50;;;8.00;88.90;;;;;;5043010;28;20033;-75
2020/12/20 09:43:47;;;;;;;9.05;5.95;;;8.00;89.00;;;;;;5045411;28;20043;-74
2020/12/20 09:46:38;;;;;;;8.43;5.93;;;8.00;88.80;;;;;;5034318;28;20449;-74
2020/12/20 09:49:04;;;;;;;9.07;5.80;;;8.00;88.70;;;;;;5062042;28;20101;-74
2020/12/20 09:51:32;;;;;;;10.70;6.90;;;8.00;88.80;;;;;;5031796;28;20067;-73
2020/12/20 09:53:58;;;;;;;7.43;5.53;;;8.00;89.00;;;;;;5036070;28;20083;-73
2020/12/20 09:56:24;;;;;;;9.40;6.35;;;8.10;88.70;;;;;;5026959;28;20016;-70
2020/12/20 09:58:49;;;;;;;11.80;5.65;;;8.10;88.50;;;;;;5025988;28;20029;-75
2020/12/20 10:01:17;;;;;;;9.95;5.97;;;8.10;88.60;;;;;;5027153;28;20028;-74
2020/12/20 10:03:43;;;;;;;11.70;6.43;;;8.10;88.70;;;;;;5041478;28;20017;-74
2020/12/20 10:06:09;;;;;;;8.30;5.80;;;8.10;88.70;;;;;;5067036;28;20775;-74
2020/12/20 10:08:35;;;;;;;8.80;5.82;;;8.10;88.60;;;;;;5038695;28;20038;-76
2020/12/20 10:11:01;;;;;;;7.90;5.93;;;8.20;89.10;;;;;;5038756;28;20108;-75
2020/12/20 10:13:26;;;;;;;11.38;6.88;;;8.20;88.60;;;;;;5046773;28;22409;-75
2020/12/20 10:15:52;;;;;;;10.05;6.68;;;8.20;88.50;;;;;;5050605;28;20040;-75
2020/12/20 10:18:18;;;;;;;10.68;7.13;;;8.20;88.50;;;;;;5045710;28;20041;-74
2020/12/20 10:20:44;;;;;;;9.68;6.32;;;8.20;88.50;;;;;;5048974;28;20136;-75
2020/12/20 10:23:10;;;;;;;9.88;6.82;;;8.20;88.50;;;;;;5045481;28;20500;-74
2020/12/20 10:25:36;;;;;;;9.75;6.70;;;8.30;88.50;;;;;;5054154;28;20070;-74
2020/12/20 10:28:02;;;;;;;10.90;6.93;;;8.20;88.30;;;;;;5031363;28;20021;-74
2020/12/20 10:30:28;;;;;;;10.48;6.97;;;8.20;88.40;;;;;;5043004;28;20079;-73
2020/12/20 10:32:55;;;;;;;8.25;6.70;;;8.30;88.30;;;;;;5042207;28;20049;-74
2020/12/20 10:35:23;;;;;;;9.45;6.05;;;8.30;88.20;;;;;;5050205;28;20017;-74
2020/12/20 10:37:51;;;;;;;9.55;6.80;;;8.30;88.20;;;;;;5052104;28;20040;-75
2020/12/20 10:40:16;;;;;;;9.73;7.03;;;8.30;88.30;;;;;;5052142;28;20025;-76
2020/12/20 10:42:42;;;;;;;9.30;6.00;;;8.30;88.10;;;;;;5043201;28;20033;-74
2020/12/20 10:45:08;;;;;;;9.90;7.13;;;8.30;88.20;;;;;;5046274;28;20029;-73
2020/12/20 10:47:33;;;;;;;8.73;5.63;;;8.30;88.00;;;;;;5049936;28;20104;-77
2020/12/20 10:49:59;;;;;;;8.23;5.90;;;8.30;88.00;;;;;;5045606;28;20527;-74
2020/12/20 10:52:26;;;;;;;9.77;6.40;;;8.30;88.10;;;;;;5024819;28;20396;-74
2020/12/20 10:54:52;;;;;;;12.52;7.28;;;8.30;88.20;;;;;;5028481;28;20033;-72
2020/12/20 10:57:17;;;;;;;9.77;6.40;;;8.30;88.20;;;;;;5015845;28;20029;-75
2020/12/20 10:59:43;;;;;;;9.05;6.95;;;8.30;88.40;;;;;;5040137;28;20044;-76
2020/12/20 11:02:09;;;;;;;11.82;8.50;;;8.40;88.30;;;;;;5047939;28;20051;-76
2020/12/20 11:04:34;;;;;;;10.25;7.18;;;8.40;88.30;;;;;;5051016;28;20032;-75
2020/12/20 11:07:01;;;;;;;9.50;7.00;;;8.40;88.30;;;;;;5043048;28;20033;-75
2020/12/20 11:09:28;;;;;;;10.38;6.80;;;8.30;88.30;;;;;;5046037;28;20029;-78
2020/12/20 11:11:54;;;;;;;10.43;7.35;;;8.30;88.30;;;;;;5051988;28;20504;-76
2020/12/20 11:14:21;;;;;;;11.93;7.07;;;8.40;88.30;;;;;;5036062;28;20029;-80
2020/12/20 11:16:51;;;;;;;12.35;7.47;;;8.40;88.40;;;;;;5029179;28;20029;-75
2020/12/20 11:19:19;;;;;;;11.80;7.65;;;8.40;88.50;;;;;;5047821;28;20035;-74
2020/12/20 11:21:55;;;;;;;10.98;7.60;;;8.30;89.10;;;;;;5031449;28;20366;-75
2020/12/20 11:24:21;;;;;;;12.38;7.82;;;8.40;88.60;;;;;;5047736;28;20028;-76
2020/12/20 11:26:48;;;;;;;11.63;7.70;;;8.40;89.30;;;;;;5041534;28;20321;-78
2020/12/20 11:29:15;;;;;;;11.27;7.75;;;8.40;88.90;;;;;;5042518;28;20032;-78
2020/12/20 11:31:41;;;;;;;11.45;8.02;;;8.40;88.90;;;;;;5050570;28;20025;-76
2020/12/20 11:34:09;;;;;;;10.38;7.35;;;8.40;88.90;;;;;;5039679;28;20101;-75
2020/12/20 11:36:35;;;;;;;10.65;7.03;;;8.40;88.90;;;;;;5026079;28;20112;-76
2020/12/20 11:39:06;;;;;;;9.60;7.30;;;8.40;89.10;;;;;;5046614;28;20025;-76
2020/12/20 11:41:32;;;;;;;10.93;7.70;;;8.40;89.00;;;;;;5035835;28;20137;-77
2020/12/20 11:43:58;;;;;;;11.45;7.70;;;8.50;89.10;;;;;;5047167;28;20379;-75
2020/12/20 11:46:24;;;;;;;10.57;7.30;;;8.50;89.10;;;;;;5047691;28;20086;-75
2020/12/20 11:48:50;;;;;;;9.05;6.90;;;8.60;88.90;;;;;;5050107;28;20021;-75
2020/12/20 11:51:17;;;;;;;11.65;7.43;;;8.50;88.90;;;;;;5033866;28;20029;-74
2020/12/20 11:53:43;;;;;;;11.13;8.13;;;8.60;88.90;;;;;;5042661;28;20103;-74
2020/12/20 11:56:11;;;;;;;10.23;7.25;;;8.60;88.90;;;;;;5048919;28;20506;-75
2020/12/20 11:58:38;;;;;;;11.55;7.97;;;8.60;89.00;;;;;;5042326;28;20029;-74
2020/12/20 12:01:04;;;;;;;15.32;8.85;;;8.60;89.10;;;;;;5020858;28;20036;-73
2020/12/20 12:03:31;;;;;;;10.88;7.85;;;8.50;89.20;;;;;;5040922;28;20063;-74
2020/12/20 12:05:58;;;;;;;12.57;8.50;;;8.60;89.20;;;;;;5027815;28;20026;-74
2020/12/20 12:08:24;;;;;;;14.23;7.90;;;8.60;89.30;;;;;;5026067;28;20055;-73
2020/12/20 12:10:50;;;;;;;10.48;7.63;;;8.60;89.20;;;;;;5038046;28;20689;-75
2020/12/20 12:13:16;;;;;;;11.50;7.75;;;8.60;89.30;;;;;;5039218;28;20527;-74
2020/12/20 12:15:44;;;;;;;11.60;8.00;;;8.60;89.60;;;;;;5034416;28;20028;-78
2020/12/20 12:18:09;;;;;;;12.00;8.32;;;8.60;89.70;;;;;;5039249;28;20431;-75
2020/12/20 12:20:36;;;;;;;12.90;8.13;;;8.60;89.80;;;;;;5049013;28;20111;-74
2020/12/20 12:23:02;;;;;;;12.23;7.97;;;8.60;89.90;;;;;;5042819;28;20021;-75
2020/12/20 12:25:28;;;;;;;12.57;8.43;;;8.60;89.90;;;;;;5046844;28;20491;-76
2020/12/20 12:27:54;;;;;;;13.38;9.15;;;8.70;90.00;;;;;;5055904;28;20092;-76
2020/12/20 12:30:20;;;;;;;12.15;8.95;;;8.60;90.00;;;;;;5047419;28;20029;-74
2020/12/20 12:32:46;;;;;;;11.93;8.52;;;8.70;90.00;;;;;;5048491;28;20065;-75
2020/12/20 12:35:12;;;;;;;12.20;8.52;;;8.70;90.00;;;;;;5016043;28;20152;-75
2020/12/20 12:37:37;;;;;;;12.48;8.32;;;8.70;90.00;;;;;;5040580;28;20565;-74
2020/12/20 12:40:05;;;;;;;11.68;7.90;;;8.70;90.50;;;;;;5044566;28;20053;-75
2020/12/20 12:42:30;;;;;;;10.18;7.70;;;8.70;90.10;;;;;;5043702;28;20052;-74
2020/12/20 12:44:56;;;;;;;13.57;8.23;;;8.80;90.00;;;;;;5033724;28;20071;-74
2020/12/20 12:47:23;;;;;;;11.43;7.88;;;8.80;90.00;;;;;;5051344;28;20037;-75
2020/12/20 12:49:49;;;;;;;11.73;8.30;;;8.80;90.00;;;;;;5042747;28;20037;-76
2020/12/20 12:52:15;;;;;;;13.90;8.43;;;8.80;90.00;;;;;;5051498;28;20025;-74
2020/12/20 12:54:41;;;;;;;13.05;9.13;;;8.80;90.00;;;;;;5050376;28;20029;-75
2020/12/20 12:57:06;;;;;;;13.75;9.30;;;8.80;89.90;;;;;;5047303;28;20104;-74